createdAt,value
2019-05-22T04:57:06.546Z,100431.98
2019-05-22T04:59:39.168Z,100447.97
2019-05-22T05:02:14.807Z,100461.87
2019-05-22T05:04:48.192Z,100449.25
2019-05-22T05:07:20.174Z,100464.31
2019-05-22T05:09:51.786Z,100472.53
2019-05-22T05:12:24.846Z,100462.70
2019-05-22T05:14:57.633Z,100462.91
2019-05-22T05:17:29.609Z,100462.12
2019-05-22T05:20:01.002Z,100462.28
2019-05-22T05:22:44.695Z,100465.78
2019-05-22T05:25:18.521Z,100476.85
2019-05-22T05:27:51.516Z,100495.63
2019-05-22T05:30:23.853Z,100496.91
2019-05-22T05:32:56.779Z,100489.11
2019-05-22T05:35:31.180Z,100484.70
2019-05-22T05:38:05.865Z,100453.71
2019-05-22T05:40:40.577Z,100475.64
2019-05-22T05:43:14.432Z,100470.63
2019-05-22T05:45:48.090Z,100459.84
2019-05-22T05:48:21.692Z,100443.63
2019-05-22T05:51:15.230Z,100427.08
2019-05-22T05:53:57.315Z,100417.02
2019-05-22T05:56:32.668Z,100437.23
2019-05-22T05:59:06.944Z,100444.20
2019-05-22T06:01:40.670Z,100396.83
2019-05-22T06:04:12.617Z,100440.30
2019-05-22T06:06:54.067Z,100435.03
2019-05-22T06:09:28.448Z,100434.73
2019-05-22T06:12:05.790Z,100441.47
2019-05-22T06:14:38.526Z,100440.87
2019-05-22T06:17:47.767Z,100434.27
2019-05-22T06:20:21.802Z,100428.19
2019-05-22T06:23:26.376Z,100433.83
2019-05-22T06:25:59.416Z,100435.51
2019-05-22T06:28:37.915Z,100428.19
2019-05-22T06:31:13.370Z,100431.66
2019-05-22T06:33:45.101Z,100434.55
2019-05-22T06:36:17.723Z,100436.34
2019-05-22T06:38:55.804Z,100447.45
2019-05-22T06:41:29.509Z,100449.55
2019-05-22T06:44:16.807Z,100448.20
2019-05-22T06:46:49.834Z,100454.92
2019-05-22T06:49:36.682Z,100442.12
2019-05-22T06:52:08.841Z,100422.23
2019-05-22T06:54:41.042Z,100416.56
2019-05-22T06:57:18.364Z,100408.56
2019-05-22T07:00:11.447Z,100399.93
2019-05-22T07:02:26.132Z,100409.94
2019-05-22T07:04:58.162Z,100401.34
2019-05-22T07:07:40.441Z,100399.66
2019-05-22T07:10:13.752Z,100398.25
2019-05-22T07:12:50.175Z,100396.45
2019-05-22T07:15:25.623Z,100397.23
2019-05-22T07:17:58.153Z,100397.75
2019-05-22T07:20:32.638Z,100398.80
2019-05-22T07:23:06.265Z,100413.41
2019-05-22T07:25:40.886Z,100431.56
2019-05-22T07:28:13.193Z,100451.38
2019-05-22T07:30:46.159Z,100465.22
2019-05-22T07:33:22.113Z,100479.63
2019-05-22T07:36:09.301Z,100481.16
2019-05-22T07:38:29.694Z,100470.33
2019-05-22T07:41:01.318Z,100478.98
2019-05-22T07:43:33.954Z,100480.96
2019-05-22T07:46:06.432Z,100482.56
2019-05-22T07:48:38.222Z,100467.30
2019-05-22T07:51:10.253Z,100472.38
2019-05-22T07:53:43.544Z,100470.22
2019-05-22T07:56:17.154Z,100460.81
2019-05-22T07:58:51.222Z,100459.17
2019-05-22T08:01:27.095Z,100458.05
2019-05-22T08:04:02.405Z,100466.08
2019-05-22T08:06:34.345Z,100424.32
2019-05-22T08:09:10.152Z,100437.69
2019-05-22T08:11:42.513Z,100424.87
2019-05-22T08:14:14.299Z,100413.76
2019-05-22T08:16:47.703Z,100402.47
2019-05-22T08:19:20.993Z,100389.17
2019-05-22T08:22:06.064Z,100376.91
2019-05-22T08:24:28.768Z,100381.69
2019-05-22T08:27:00.656Z,100382.98
2019-05-22T08:29:48.842Z,100353.47
2019-05-22T08:32:22.586Z,100386.17
2019-05-22T08:34:55.408Z,100384.74
2019-05-22T08:37:33.543Z,100384.78
2019-05-22T08:40:09.297Z,100396.32
2019-05-22T08:42:48.262Z,100393.22
2019-05-22T08:45:23.677Z,100386.25
2019-05-22T08:47:55.315Z,100389.90
2019-05-22T08:50:34.967Z,100394.13
2019-05-22T08:53:08.091Z,100403.59
2019-05-22T08:55:42.115Z,100394.80
2019-05-22T08:58:15.733Z,100396.85
2019-05-22T09:00:48.112Z,100401.14
2019-05-22T09:03:19.550Z,100412.01
2019-05-22T09:05:52.159Z,100417.00
2019-05-22T09:08:24.421Z,100427.64
2019-05-22T09:10:58.645Z,100433.92
2019-05-22T09:13:32.064Z,100435.23
2019-05-22T09:16:03.895Z,100430.75
2019-05-22T09:18:36.160Z,100442.95
2019-05-22T09:21:08.045Z,100439.73
2019-05-22T09:23:46.747Z,100435.25
2019-05-22T09:26:19.074Z,100433.56
2019-05-22T09:28:51.003Z,100431.09
2019-05-22T09:31:24.101Z,100442.12
2019-05-22T09:33:55.954Z,100430.98
2019-05-22T09:36:28.736Z,100433.58
2019-05-22T09:39:08.157Z,100432.04
2019-05-22T09:41:39.648Z,100429.01
2019-05-22T09:44:15.028Z,100423.19
2019-05-22T09:46:45.020Z,100421.70
2019-05-22T09:49:16.981Z,100413.34
2019-05-22T09:51:56.412Z,100406.02
2019-05-22T09:54:28.640Z,100398.56
2019-05-22T09:57:05.714Z,100394.59
2019-05-22T09:59:38.321Z,100386.70
2019-05-22T10:02:11.857Z,100383.36
2019-05-22T10:05:07.657Z,100377.18
2019-05-22T10:07:57.920Z,100365.73
2019-05-22T10:10:17.041Z,100357.06
2019-05-22T10:12:52.556Z,100353.77
2019-05-22T10:15:25.671Z,100351.12
2019-05-22T10:17:58.543Z,100349.47
2019-05-22T10:20:30.658Z,100350.93
2019-05-22T10:25:44.753Z,100366.78
2019-05-22T10:28:17.135Z,100369.42
2019-05-22T10:30:49.720Z,100382.45
2019-05-22T10:33:21.410Z,100391.83
2019-05-22T10:35:53.335Z,100397.56
2019-05-22T10:38:25.416Z,100414.55
2019-05-22T10:40:59.376Z,100425.34
2019-05-22T10:43:30.468Z,100448.92
2019-05-22T10:46:04.757Z,100460.40
2019-05-22T10:48:40.208Z,100461.57
2019-05-22T10:51:11.149Z,100469.56
2019-05-22T10:53:44.441Z,100471.63
2019-05-22T10:56:16.125Z,100462.07
2019-05-22T10:58:49.542Z,100469.80
2019-05-22T11:01:23.370Z,100468.20
2019-05-22T11:03:57.240Z,100465.62
2019-05-22T11:06:28.938Z,100472.85
2019-05-22T11:09:00.694Z,100466.55
2019-05-22T11:11:36.493Z,100461.63
2019-05-22T11:14:12.352Z,100457.63
2019-05-22T11:16:44.108Z,100463.35
2019-05-22T11:19:16.289Z,100450.73
2019-05-22T11:21:48.141Z,100454.82
2019-05-22T11:24:19.853Z,100446.73
2019-05-22T11:26:51.756Z,100441.98
2019-05-22T11:29:24.284Z,100430.44
2019-05-22T11:31:56.974Z,100424.80
2019-05-22T11:34:29.727Z,100415.38
2019-05-22T11:37:01.917Z,100359.61
2019-05-22T11:39:39.800Z,100400.27
2019-05-22T11:42:11.131Z,100394.58
2019-05-22T11:44:42.690Z,100392.72
2019-05-22T11:47:17.358Z,100386.75
2019-05-22T11:49:51.314Z,100371.34
2019-05-22T11:52:24.411Z,100359.47
2019-05-22T11:54:55.857Z,100360.19
2019-05-22T11:57:27.838Z,100361.48
2019-05-22T11:59:59.994Z,100359.63
2019-05-22T12:02:33.791Z,100348.98
2019-05-22T12:05:18.506Z,100346.86
2019-05-22T12:07:50.342Z,100343.97
2019-05-22T12:10:22.653Z,100348.31
2019-05-22T12:12:55.725Z,100343.45
2019-05-22T12:15:32.098Z,100338.00
2019-05-22T12:18:05.926Z,100335.41
2019-05-22T12:20:37.832Z,100339.13
2019-05-22T12:23:09.537Z,100337.72
2019-05-22T12:25:41.628Z,100336.34
2019-05-22T12:28:13.372Z,100335.80
2019-05-22T12:30:46.537Z,100339.82
2019-05-22T12:33:18.426Z,100342.39
2019-05-22T12:35:51.601Z,100336.98
2019-05-22T12:38:26.883Z,100332.31
2019-05-22T12:40:58.114Z,100334.52
2019-05-22T12:43:31.942Z,100325.12
2019-05-22T12:46:03.820Z,100329.31
2019-05-22T12:48:36.800Z,100324.11
2019-05-22T12:51:10.689Z,100314.19
2019-05-22T12:53:45.398Z,100311.52
2019-05-22T12:56:18.754Z,100313.05
2019-05-22T12:58:50.921Z,100316.58
2019-05-22T13:01:25.339Z,100315.09
2019-05-22T13:03:57.996Z,100304.27
2019-05-22T13:06:32.453Z,100298.20
2019-05-22T13:09:09.795Z,100298.89
2019-05-22T13:12:02.086Z,100307.90
2019-05-22T13:14:36.047Z,100308.11
2019-05-22T13:17:12.799Z,100308.18
2019-05-22T13:19:46.804Z,100307.39
2019-05-22T13:22:22.891Z,100300.00
2019-05-22T13:24:55.284Z,100296.31
2019-05-22T13:27:29.359Z,100291.09
2019-05-22T13:30:01.570Z,100299.13
2019-05-22T13:32:36.838Z,100292.88
2019-05-22T13:35:12.081Z,100281.13
2019-05-22T13:37:48.844Z,100269.79
2019-05-22T13:40:27.526Z,100265.86
2019-05-22T13:42:57.640Z,100261.37
2019-05-22T13:45:33.675Z,100251.89
2019-05-22T13:48:06.587Z,100242.39
2019-05-22T13:50:38.701Z,100245.08
2019-05-22T13:53:12.812Z,100259.70
2019-05-22T13:55:46.443Z,100255.20
2019-05-22T13:58:20.602Z,100247.23
2019-05-22T14:00:54.067Z,100218.51
2019-05-22T14:03:25.806Z,100250.00
2019-05-22T14:05:58.458Z,100254.96
2019-05-22T14:08:30.180Z,100260.45
2019-05-22T14:11:04.282Z,100264.89
2019-05-22T14:13:36.002Z,100272.56
2019-05-22T14:16:10.314Z,100280.30
2019-05-22T14:18:45.185Z,100284.94
2019-05-22T14:21:18.980Z,100279.06
2019-05-22T14:23:52.234Z,100279.81
2019-05-22T14:26:25.774Z,100264.84
2019-05-22T14:28:59.399Z,100257.38
2019-05-22T14:31:31.065Z,100221.34
2019-05-22T14:34:03.404Z,100252.52
2019-05-22T14:36:35.974Z,100244.32
2019-05-22T14:39:08.446Z,100243.69
2019-05-22T14:41:39.830Z,100246.62
2019-05-22T14:44:11.300Z,100240.83
2019-05-22T14:46:43.655Z,100250.52
2019-05-22T14:49:20.694Z,100244.38
2019-05-22T14:51:56.930Z,100249.67
2019-05-22T14:54:29.595Z,100250.06
2019-05-22T14:57:01.925Z,100253.92
2019-05-22T14:59:33.766Z,100259.31
2019-05-22T15:02:06.345Z,100260.64
2019-05-22T15:04:37.746Z,100255.24
2019-05-22T15:07:10.128Z,100257.70
2019-05-22T15:09:41.603Z,100261.16
2019-05-22T15:12:13.452Z,100257.70
2019-05-22T15:14:47.088Z,100251.19
2019-05-22T15:17:31.940Z,100251.12
2019-05-22T15:19:54.186Z,100254.46
2019-05-22T15:22:27.606Z,100253.23
2019-05-22T15:24:59.766Z,100248.38
2019-05-22T15:27:34.105Z,100242.55
2019-05-22T15:30:10.679Z,100248.65
2019-05-22T15:32:42.348Z,100251.31
2019-05-22T15:35:15.106Z,100252.84
2019-05-22T15:37:50.959Z,100261.19
2019-05-22T15:40:24.394Z,100265.60
2019-05-22T15:42:56.893Z,100275.61
2019-05-22T15:45:30.440Z,100282.19
2019-05-22T15:48:06.845Z,100275.53
2019-05-22T15:50:39.115Z,100275.53
2019-05-22T15:53:15.192Z,100277.48
2019-05-22T15:55:48.973Z,100282.89
2019-05-22T15:58:20.644Z,100280.29
2019-05-22T16:00:52.979Z,100281.95
2019-05-22T16:03:27.452Z,100287.28
2019-05-22T16:05:59.851Z,100282.89
2019-05-22T16:08:31.988Z,100279.38
2019-05-22T16:11:06.887Z,100281.13
2019-05-22T16:13:39.479Z,100281.67
2019-05-22T16:16:13.175Z,100279.38
2019-05-22T16:18:50.320Z,100275.72
2019-05-22T16:21:24.950Z,100268.02
2019-05-22T16:23:59.256Z,100268.53
2019-05-22T16:26:31.810Z,100268.30
2019-05-22T16:29:04.589Z,100263.19
2019-05-22T16:31:40.457Z,100257.58
2019-05-22T16:34:12.969Z,100245.59
2019-05-22T16:36:45.869Z,100244.34
2019-05-22T16:39:17.842Z,100248.48
2019-05-22T16:41:49.821Z,100242.54
2019-05-22T16:44:21.396Z,100243.86
2019-05-22T16:46:53.603Z,100246.16
2019-05-22T16:49:28.103Z,100243.25
2019-05-22T16:52:02.335Z,100238.77
2019-05-22T16:54:34.585Z,100238.98
2019-05-22T16:57:06.822Z,100236.69
2019-05-22T16:59:41.387Z,100237.72
2019-05-22T17:02:15.462Z,100232.10
2019-05-22T17:04:54.085Z,100232.18
2019-05-22T17:07:28.194Z,100225.30
2019-05-22T17:10:00.145Z,100225.48
2019-05-22T17:12:33.221Z,100230.80
2019-05-22T17:15:08.972Z,100232.55
2019-05-22T17:17:40.872Z,100239.59
2019-05-22T17:20:13.370Z,100241.92
2019-05-22T17:22:48.063Z,100240.41
2019-05-22T17:25:21.111Z,100234.59
2019-05-22T17:27:52.806Z,100237.85
2019-05-22T17:30:26.849Z,100235.95
2019-05-22T17:32:59.835Z,100239.42
2019-05-22T17:35:32.489Z,100235.56
2019-05-22T17:38:09.488Z,100228.14
2019-05-22T17:40:41.814Z,100231.56
2019-05-22T17:43:14.682Z,100235.88
2019-05-22T17:45:47.952Z,100248.51
2019-05-22T17:48:20.107Z,100255.93
2019-05-22T17:50:53.450Z,100255.30
2019-05-22T17:53:26.059Z,100257.03
2019-05-22T17:55:58.053Z,100260.19
2019-05-22T17:58:30.444Z,100259.79
2019-05-22T18:01:06.529Z,100261.02
2019-05-22T18:03:39.158Z,100262.30
2019-05-22T18:06:10.886Z,100262.69
2019-05-22T18:08:42.577Z,100261.52
2019-05-22T18:11:18.023Z,100256.14
2019-05-22T18:13:56.758Z,100254.88
2019-05-22T18:16:31.383Z,100268.27
2019-05-22T18:19:04.982Z,100264.41
2019-05-22T18:21:37.504Z,100263.92
2019-05-22T18:24:11.440Z,100263.34
2019-05-22T18:26:45.824Z,100271.02
2019-05-22T18:29:17.548Z,100262.56
2019-05-22T18:31:50.773Z,100272.58
2019-05-22T18:34:24.723Z,100269.30
2019-05-22T18:36:57.058Z,100282.48
2019-05-22T18:39:30.323Z,100275.38
2019-05-22T18:42:02.289Z,100278.53
2019-05-22T18:44:35.679Z,100279.50
2019-05-22T18:47:08.974Z,100272.10
2019-05-22T18:49:40.957Z,100271.73
2019-05-22T18:52:12.992Z,100278.84
2019-05-22T18:54:45.292Z,100267.95
2019-05-22T18:57:17.860Z,100261.05
2019-05-22T18:59:50.766Z,100259.48
2019-05-22T19:02:24.546Z,100260.00
2019-05-22T19:04:56.658Z,100256.17
2019-05-22T19:07:28.578Z,100251.50
2019-05-22T19:10:00.761Z,100252.52
2019-05-22T19:12:37.043Z,100255.84
2019-05-22T19:15:10.947Z,100257.82
2019-05-22T19:17:42.648Z,100258.20
2019-05-22T19:20:15.878Z,100257.66
2019-05-22T19:22:59.022Z,100251.26
2019-05-22T19:25:23.491Z,100258.03
2019-05-22T19:27:55.990Z,100256.17
2019-05-22T19:30:29.329Z,100249.20
2019-05-22T19:33:01.325Z,100254.80
2019-05-22T19:35:33.091Z,100255.51
2019-05-22T19:38:06.487Z,100253.03
2019-05-22T19:40:38.113Z,100250.55
2019-05-22T19:43:11.558Z,100249.32
2019-05-22T19:45:43.233Z,100248.56
2019-05-22T19:48:15.777Z,100252.02
2019-05-22T19:50:50.285Z,100242.27
2019-05-22T19:53:23.452Z,100243.94
2019-05-22T19:55:55.160Z,100248.52
2019-05-22T19:58:30.863Z,100233.59
2019-05-22T20:01:06.033Z,100227.25
2019-05-22T20:03:40.170Z,100216.86
2019-05-22T20:06:20.838Z,100220.91
2019-05-22T20:09:00.459Z,100217.41
2019-05-22T20:11:36.022Z,100222.04
2019-05-22T20:14:09.307Z,100228.98
2019-05-22T20:16:46.122Z,100219.18
2019-05-22T20:19:19.627Z,100214.89
2019-05-22T20:21:54.300Z,100212.38
2019-05-22T20:24:32.866Z,100207.95
2019-05-22T20:27:10.095Z,100212.70
2019-05-22T20:29:41.899Z,100200.26
2019-05-22T20:32:15.807Z,100196.22
2019-05-22T20:34:49.615Z,100196.61
2019-05-22T20:37:21.584Z,100192.91
2019-05-22T20:39:53.520Z,100197.95
2019-05-22T20:42:25.796Z,100194.25
2019-05-22T20:44:58.002Z,100189.04
2019-05-22T20:47:31.452Z,100198.66
2019-05-22T20:50:03.594Z,100198.61
2019-05-22T20:52:35.798Z,100205.77
2019-05-22T20:55:09.729Z,100201.61
2019-05-22T20:57:43.921Z,100191.69
2019-05-22T21:00:16.422Z,100201.16
2019-05-22T21:02:48.765Z,100198.84
2019-05-22T21:05:23.299Z,100203.76
2019-05-22T21:07:59.575Z,100204.01
2019-05-22T21:10:34.473Z,100207.12
2019-05-22T21:13:08.627Z,100205.84
2019-05-22T21:15:42.726Z,100208.95
2019-05-22T21:18:14.612Z,100204.37
2019-05-22T21:20:54.628Z,100208.84
2019-05-22T21:23:22.205Z,100214.13
2019-05-22T21:25:54.063Z,100209.66
2019-05-22T21:28:28.286Z,100221.16
2019-05-22T21:31:02.123Z,100220.41
2019-05-22T21:33:33.955Z,100219.64
2019-05-22T21:36:08.699Z,100218.73
2019-05-22T21:38:41.105Z,100211.07
2019-05-22T21:41:13.334Z,100207.21
2019-05-22T21:43:45.878Z,100216.81
2019-05-22T21:46:17.959Z,100211.50
2019-05-22T21:48:51.375Z,100211.50
2019-05-22T21:51:23.716Z,100215.23
2019-05-22T21:53:56.701Z,100210.97
2019-05-22T21:56:28.794Z,100213.31
2019-05-22T21:59:01.385Z,100203.08
2019-05-22T22:01:35.990Z,100210.47
2019-05-22T22:04:12.187Z,100215.37
2019-05-22T22:06:44.230Z,100209.79
2019-05-22T22:09:17.424Z,100214.66
2019-05-22T22:11:50.208Z,100212.67
2019-05-22T22:14:24.171Z,100210.33
2019-05-22T22:16:56.707Z,100210.83
2019-05-22T22:19:30.503Z,100210.33
2019-05-22T22:22:03.901Z,100205.83
2019-05-22T22:24:36.076Z,100206.36
2019-05-22T22:27:08.097Z,100204.41
2019-05-22T22:29:42.166Z,100202.53
2019-05-22T22:32:15.944Z,100206.31
2019-05-22T22:34:50.531Z,100202.70
2019-05-22T22:37:23.891Z,100212.80
2019-05-22T22:39:57.915Z,100206.59
2019-05-22T22:42:31.767Z,100210.84
2019-05-22T22:45:05.982Z,100210.34
2019-05-22T22:47:38.715Z,100203.13
2019-05-22T22:50:11.586Z,100210.48
2019-05-22T22:52:45.433Z,100211.34
2019-05-22T22:55:19.297Z,100197.30
2019-05-22T22:57:51.636Z,100200.23
2019-05-22T23:00:25.459Z,100201.58
2019-05-22T23:02:57.365Z,100202.62
2019-05-22T23:05:29.248Z,100201.44
2019-05-22T23:08:01.267Z,100195.55
2019-05-22T23:10:33.446Z,100188.23
2019-05-22T23:13:07.266Z,100189.22
2019-05-22T23:15:40.488Z,100195.43
2019-05-22T23:18:15.890Z,100200.94
2019-05-22T23:20:46.488Z,100202.75
2019-05-22T23:23:17.670Z,100203.50
2019-05-22T23:25:49.702Z,100194.77
2019-05-22T23:28:34.019Z,100200.38
2019-05-22T23:30:57.062Z,100197.39
2019-05-22T23:33:30.971Z,100199.50
2019-05-22T23:36:02.917Z,100198.16
2019-05-22T23:38:34.875Z,100196.95
2019-05-22T23:41:09.191Z,100192.90
2019-05-22T23:43:42.542Z,100194.20
2019-05-22T23:46:17.128Z,100185.81
2019-05-22T23:48:48.771Z,100192.33
2019-05-22T23:51:20.741Z,100186.66
2019-05-22T23:53:54.247Z,100194.88
2019-05-22T23:56:26.721Z,100195.92
2019-05-22T23:58:58.883Z,100192.19
